createdAt,value
2023-05-13T00:02:56.364Z,10.80
2023-05-13T00:06:00.749Z,11.70
2023-05-13T00:08:37.688Z,8.10
2023-05-13T00:11:13.405Z,10.00
2023-05-13T00:13:57.668Z,12.10
2023-05-13T00:17:00.149Z,8.30
2023-05-13T00:19:48.065Z,8.80
2023-05-13T00:22:41.788Z,7.60
2023-05-13T00:25:49.137Z,8.70
2023-05-13T00:28:50.678Z,7.90
2023-05-13T00:32:04.912Z,9.00
2023-05-13T00:37:45.417Z,7.10
2023-05-13T00:40:48.019Z,7.80
2023-05-13T00:43:32.813Z,6.90
2023-05-13T00:46:09.400Z,12.30
2023-05-13T00:48:55.782Z,10.90
2023-05-13T00:52:04.190Z,9.90
2023-05-13T00:56:07.462Z,10.10
2023-05-13T00:59:34.520Z,9.60
2023-05-13T01:03:03.227Z,8.10
2023-05-13T01:14:34.024Z,9.70
2023-05-13T01:17:27.911Z,11.10
2023-05-13T01:20:05.534Z,11.40
2023-05-13T01:23:41.057Z,13.80
2023-05-13T01:26:24.278Z,8.20
2023-05-13T01:29:06.656Z,14.20
2023-05-13T01:32:15.991Z,12.00
2023-05-13T01:35:21.576Z,10.90
2023-05-13T01:38:03.254Z,11.60
2023-05-13T01:40:49.902Z,10.10
2023-05-13T01:43:22.597Z,8.20
2023-05-13T01:46:24.436Z,9.20
2023-05-13T01:48:59.211Z,7.60
2023-05-13T01:51:38.776Z,6.50
2023-05-13T01:54:26.801Z,7.00
2023-05-13T01:57:11.435Z,12.40
2023-05-13T01:59:49.075Z,9.40
2023-05-13T02:05:41.538Z,9.70
2023-05-13T02:09:05.732Z,11.90
2023-05-13T02:11:45.852Z,9.10
2023-05-13T02:14:46.716Z,8.80
2023-05-13T02:17:23.252Z,8.50
2023-05-13T02:20:20.120Z,7.50
2023-05-13T02:22:53.074Z,10.00
2023-05-13T02:25:39.828Z,7.70
2023-05-13T02:28:15.000Z,9.30
2023-05-13T02:31:12.235Z,11.40
2023-05-13T02:34:26.569Z,9.80
2023-05-13T02:37:25.434Z,8.30
2023-05-13T02:40:09.967Z,9.30
2023-05-13T02:43:18.280Z,7.20
2023-05-13T02:46:03.334Z,8.00
2023-05-13T02:48:58.771Z,8.20
2023-05-13T02:54:20.875Z,8.50
2023-05-13T02:57:01.845Z,7.50
2023-05-13T03:00:08.727Z,7.60
2023-05-13T03:06:32.957Z,7.70
2023-05-13T03:12:36.071Z,6.00
2023-05-13T03:15:52.286Z,5.40
2023-05-13T03:18:37.931Z,5.80
2023-05-13T03:21:52.143Z,5.90
2023-05-13T03:24:29.150Z,6.00
2023-05-13T03:27:51.626Z,6.20
2023-05-13T03:30:57.684Z,5.40
2023-05-13T03:34:09.228Z,6.70
2023-05-13T03:36:52.623Z,5.80
2023-05-13T03:39:48.224Z,6.40
2023-05-13T03:43:18.696Z,7.50
2023-05-13T03:45:59.847Z,6.70
2023-05-13T03:48:31.285Z,6.00
2023-05-13T03:51:04.610Z,7.00
2023-05-13T03:53:38.772Z,6.90
2023-05-13T03:56:17.098Z,6.90
2023-05-13T03:58:49.567Z,5.20
2023-05-13T04:08:20.139Z,5.50
2023-05-13T04:11:21.405Z,6.50
2023-05-13T04:16:53.104Z,4.90
2023-05-13T04:22:25.692Z,6.20
2023-05-13T04:25:24.700Z,6.20
2023-05-13T04:28:57.212Z,6.50
2023-05-13T04:32:05.180Z,5.10
2023-05-13T04:46:46.728Z,5.80
2023-05-13T04:50:36.029Z,5.50
2023-05-13T04:53:58.430Z,6.20
2023-05-13T04:56:44.612Z,7.90
2023-05-13T05:00:02.292Z,4.20
2023-05-13T05:03:06.448Z,4.90
2023-05-13T05:06:17.185Z,6.80
2023-05-13T05:09:24.572Z,4.10
2023-05-13T05:19:57.638Z,4.10
2023-05-13T05:23:03.940Z,4.70
2023-05-13T05:26:20.484Z,5.60
2023-05-13T05:29:12.652Z,6.10
2023-05-13T05:31:59.821Z,4.50
2023-05-13T05:35:50.003Z,5.50
2023-05-13T05:38:45.050Z,6.70
2023-05-13T05:41:58.034Z,6.90
2023-05-13T05:44:48.618Z,5.80
2023-05-13T05:47:34.443Z,7.00
2023-05-13T05:50:39.027Z,4.80
2023-05-13T05:53:15.241Z,5.60
2023-05-13T05:56:58.165Z,6.50
2023-05-13T05:59:29.297Z,5.80
2023-05-13T06:05:26.458Z,5.00
2023-05-13T06:08:38.297Z,6.40
2023-05-13T06:11:19.835Z,5.90
2023-05-13T06:14:06.138Z,4.00
2023-05-13T06:17:00.459Z,4.80
2023-05-13T06:19:39.588Z,4.40
2023-05-13T06:22:44.343Z,6.50
2023-05-13T06:25:48.674Z,4.10
2023-05-13T06:29:30.341Z,4.20
2023-05-13T06:32:25.706Z,7.40
2023-05-13T06:35:14.948Z,5.20
2023-05-13T06:49:02.634Z,3.70
2023-05-13T06:51:58.800Z,3.40
2023-05-13T06:57:41.806Z,3.60
2023-05-13T07:01:12.487Z,3.10
2023-05-13T07:04:14.818Z,3.90
2023-05-13T07:07:30.411Z,4.00
2023-05-13T07:17:48.078Z,4.20
2023-05-13T07:21:24.542Z,4.80
2023-05-13T08:00:00.912Z,3.40
2023-05-13T08:26:52.030Z,4.50
2023-05-13T08:36:41.043Z,3.80
2023-05-13T08:39:38.801Z,3.70
2023-05-13T08:49:41.868Z,5.30
2023-05-13T08:53:16.971Z,3.80
2023-05-13T08:56:33.029Z,3.10
2023-05-13T08:59:18.628Z,4.20
2023-05-13T09:06:46.282Z,5.70
2023-05-13T09:17:32.567Z,4.40
2023-05-13T09:21:07.980Z,5.00
2023-05-13T09:24:24.898Z,5.10
2023-05-13T09:38:53.908Z,5.30
2023-05-13T09:45:47.151Z,4.60
2023-05-13T09:49:07.652Z,7.50
2023-05-13T10:06:04.953Z,8.10
2023-05-13T10:10:02.574Z,4.20
2023-05-13T10:29:09.644Z,3.40
2023-05-13T10:39:26.036Z,3.70
2023-05-13T11:03:37.044Z,2.80
2023-05-13T11:10:05.450Z,3.00
2023-05-13T11:13:20.579Z,3.30
2023-05-13T11:16:01.659Z,2.70
2023-05-13T11:21:49.968Z,4.10
2023-05-13T11:24:36.224Z,3.90
2023-05-13T20:43:34.543Z,7.60
2023-05-13T20:46:29.274Z,7.50
2023-05-13T20:49:22.900Z,8.40
2023-05-13T20:53:12.086Z,7.90
2023-05-13T20:56:16.642Z,7.60
2023-05-13T20:59:17.285Z,6.50
2023-05-13T21:10:52.981Z,8.40
2023-05-13T21:15:04.228Z,5.60
2023-05-13T21:21:08.387Z,5.60
2023-05-13T21:23:57.732Z,5.50
2023-05-13T21:30:53.190Z,5.30
2023-05-13T21:59:06.263Z,6.50
2023-05-13T22:02:21.640Z,7.10
2023-05-13T22:05:44.619Z,7.20
2023-05-13T22:09:19.130Z,5.80
2023-05-13T22:12:12.704Z,6.30
2023-05-13T22:15:07.226Z,4.60
2023-05-13T22:21:19.622Z,3.80
2023-05-13T22:25:19.279Z,6.20
2023-05-13T22:35:02.656Z,5.10
2023-05-13T22:38:00.855Z,5.20
2023-05-13T22:41:38.151Z,3.80
2023-05-13T22:45:23.239Z,4.30
2023-05-13T22:48:45.205Z,4.60
2023-05-13T22:55:22.119Z,4.10
2023-05-13T23:01:54.365Z,4.10
2023-05-13T23:04:59.847Z,5.50
2023-05-13T23:14:25.587Z,3.50
2023-05-13T23:17:14.546Z,3.80
2023-05-13T23:24:47.115Z,5.10
2023-05-13T23:27:57.804Z,3.40
2023-05-13T23:31:49.986Z,3.70
2023-05-13T23:41:32.955Z,6.20
2023-05-13T23:44:53.748Z,3.70
2023-05-13T23:52:02.455Z,4.30
2023-05-13T23:58:13.101Z,3.70
